Terminal Aerodrome Forecast
Issued by NWS

Home | Current Version | Previous Version | Graphics & Text | Print | Product List | Glossary On
Versions: 1 2 3 4 5 6 7 8 9 10 11 12 13 14 15 16 17 18 19 20 21 22 23 24
000
FTUS43 KGRB 192300 RRA
TAFCWA
TAF
KCWA 192343Z 2000/2024 19012G20KT P6SM SCT060 BKN150 WS015/21040KT
     FM200200 20010G17KT P6SM SCT030 BKN060 WS015/21040KT
      TEMPO 2003/2006 4SM SHRA OVC030
     FM200600 22011G18KT 5SM BR SCT008 BKN015 WS015/24040KT
      TEMPO 2006/2010 4SM SHRA BR BKN006
     FM201000 24009KT 4SM BR BKN006
     FM201400 27009G15KT P6SM BKN015
     FM201700 28011G18KT P6SM SCT025 SCT100
      AMD LTD TO CLD VIS AND WIND 2003/2011=

USA.gov is the U.S. government's official web portal to all federal, state and local government web resources and services.